Time;durP1;ratioP1;P1;durP2;ratioP2;P2;SDS_P1;SDS_P2;PMS_P1;PMS_P2;Temp;Humidity;BMP_temperature;BMP_pressure;BME280_temperature;BME280_humidity;BME280_pressure;Samples;Min_cycle;Max_cycle;Signal;HPM_P1;HPM_P2
2023/05/22 00:00:15;;;;;;;13.80;9.15;;;;;;;16.26;72.83;95865.72;5072265;28;20515;-74
2023/05/22 00:02:42;;;;;;;15.35;9.27;;;;;;;16.09;73.38;95866.19;5073033;28;20109;-75
2023/05/22 00:05:10;;;;;;;14.85;9.40;;;;;;;15.99;73.79;95861.31;5072191;28;20044;-75
2023/05/22 00:07:39;;;;;;;12.43;10.05;;;;;;;15.89;74.13;95857.19;5072953;28;20051;-76
2023/05/22 00:10:06;;;;;;;15.98;9.88;;;;;;;15.89;74.60;95858.00;5072539;28;20075;-75
2023/05/22 00:12:33;;;;;;;12.90;9.27;;;;;;;15.94;74.15;95859.66;5072460;28;20045;-75
2023/05/22 00:14:59;;;;;;;13.75;9.77;;;;;;;15.94;74.42;95864.34;5072531;28;20036;-74
2023/05/22 00:17:29;;;;;;;15.35;9.95;;;;;;;15.79;75.06;95853.09;5071727;28;20048;-75
2023/05/22 00:20:01;;;;;;;12.20;8.93;;;;;;;15.85;74.45;95856.34;5072600;28;20124;-75
2023/05/22 00:22:30;;;;;;;15.35;9.50;;;;;;;15.82;74.69;95849.63;5072628;28;20127;-75
2023/05/22 00:24:58;;;;;;;14.98;9.85;;;;;;;15.75;74.60;95856.94;5073592;28;20067;-75
2023/05/22 00:27:24;;;;;;;15.07;10.30;;;;;;;15.71;75.08;95851.38;5072969;28;20045;-75
2023/05/22 00:29:51;;;;;;;16.58;9.88;;;;;;;15.69;75.14;95842.72;5073473;28;20592;-75
2023/05/22 00:32:17;;;;;;;13.63;9.18;;;;;;;15.90;74.53;95856.84;5074602;28;20055;-75
2023/05/22 00:34:44;;;;;;;12.50;9.00;;;;;;;15.97;74.68;95850.66;5073344;28;20071;-74
2023/05/22 00:37:10;;;;;;;11.50;8.93;;;;;;;15.99;74.33;95850.31;5072922;28;20048;-75
2023/05/22 00:39:37;;;;;;;12.13;9.45;;;;;;;16.07;74.58;95846.53;5072903;28;20064;-74
2023/05/22 00:42:05;;;;;;;13.50;9.60;;;;;;;16.09;74.52;95849.72;5072233;28;20515;-74
2023/05/22 00:44:32;;;;;;;13.60;9.50;;;;;;;16.15;74.23;95851.00;5073367;28;20045;-75
2023/05/22 00:46:58;;;;;;;12.05;9.30;;;;;;;16.08;74.33;95856.38;5072506;28;20047;-75
2023/05/22 00:49:25;;;;;;;12.07;9.75;;;;;;;16.03;74.25;95848.44;5071422;28;20040;-74
2023/05/22 00:51:51;;;;;;;13.77;9.98;;;;;;;16.02;73.68;95855.06;5072789;28;20056;-74
2023/05/22 00:54:18;;;;;;;11.20;9.23;;;;;;;16.02;74.03;95850.38;5073814;28;20048;-74
2023/05/22 00:56:45;;;;;;;13.02;10.20;;;;;;;15.99;73.96;95848.38;5075752;28;20045;-75
2023/05/22 00:59:13;;;;;;;16.00;10.27;;;;;;;15.81;75.00;95845.28;5075228;28;20123;-75
2023/05/22 01:01:41;;;;;;;13.85;9.45;;;;;;;15.81;74.31;95850.78;5076678;28;20123;-74
2023/05/22 01:04:10;;;;;;;15.23;9.85;;;;;;;15.74;74.64;95839.66;5074877;28;20470;-75
2023/05/22 01:06:37;;;;;;;13.60;9.75;;;;;;;15.79;75.36;95852.31;5075679;28;20045;-74
2023/05/22 01:09:04;;;;;;;14.73;8.93;;;;;;;15.84;75.09;95849.25;5078076;28;20044;-75
2023/05/22 01:11:39;;;;;;;11.23;8.73;;;;;;;15.94;75.44;95851.41;5076850;28;20083;-74
2023/05/22 01:14:11;;;;;;;12.38;9.90;;;;;;;15.99;75.65;95851.13;5075897;28;20435;-74
2023/05/22 01:16:47;;;;;;;11.93;9.00;;;;;;;15.99;74.53;95866.81;5076738;28;20053;-74
2023/05/22 01:19:41;;;;;;;10.90;8.93;;;;;;;15.98;74.91;95859.72;5075834;28;20079;-74
2023/05/22 01:22:20;;;;;;;11.20;9.10;;;;;;;15.93;74.45;95857.28;5074581;28;20037;-75
2023/05/22 01:25:20;;;;;;;17.00;9.50;;;;;;;15.83;74.47;95853.97;5075627;28;20047;-75
2023/05/22 01:28:20;;;;;;;12.70;9.07;;;;;;;15.79;75.69;95853.09;5060319;28;20044;-74
2023/05/22 01:31:00;;;;;;;13.20;9.23;;;;;;;15.73;75.95;95864.75;5070650;28;20037;-74
2023/05/22 01:33:30;;;;;;;11.93;9.30;;;;;;;15.63;76.61;95871.59;5071016;28;20056;-74
2023/05/22 01:35:59;;;;;;;12.35;9.50;;;;;;;15.64;77.23;95867.69;5069876;28;20051;-74
2023/05/22 01:38:27;;;;;;;14.95;9.55;;;;;;;15.64;77.45;95870.44;5070419;28;20416;-74
2023/05/22 01:40:54;;;;;;;15.18;10.15;;;;;;;15.44;76.90;95868.84;5070782;28;20056;-75
2023/05/22 01:43:21;;;;;;;11.10;8.98;;;;;;;15.46;77.01;95872.03;5070281;28;20450;-74
2023/05/22 01:45:48;;;;;;;12.23;10.00;;;;;;;15.48;77.59;95865.00;5069964;28;20404;-74
2023/05/22 01:48:16;;;;;;;12.00;9.45;;;;;;;15.49;77.73;95868.53;5069967;28;20045;-74
2023/05/22 01:50:44;;;;;;;14.70;9.63;;;;;;;15.50;77.42;95870.91;5070636;28;20041;-74
2023/05/22 01:53:17;;;;;;;15.90;9.68;;;;;;;15.48;77.62;95872.44;5070154;28;20048;-74
2023/05/22 01:55:50;;;;;;;13.93;9.70;;;;;;;15.46;77.63;95866.53;5070579;28;20048;-75
2023/05/22 01:58:24;;;;;;;11.90;9.10;;;;;;;15.45;77.99;95882.19;5069624;28;20044;-74
2023/05/22 02:00:53;;;;;;;12.38;9.68;;;;;;;15.41;78.37;95870.38;5058549;28;20040;-74
2023/05/22 02:03:25;;;;;;;12.05;9.80;;;;;;;15.40;79.51;95869.56;5069693;28;20044;-74
2023/05/22 02:05:54;;;;;;;12.65;9.95;;;;;;;15.27;79.20;95867.31;5070247;28;20037;-74
2023/05/22 02:08:23;;;;;;;14.57;10.07;;;;;;;14.99;78.31;95878.47;5069681;28;20045;-74
2023/05/22 02:10:52;;;;;;;17.10;10.40;;;;;;;14.97;78.37;95873.31;5070110;28;20048;-74
2023/05/22 02:13:18;;;;;;;13.85;10.68;;;;;;;15.00;78.36;95875.38;5069511;28;20045;-75
2023/05/22 02:15:46;;;;;;;12.77;9.77;;;;;;;15.05;78.68;95868.81;5069876;28;20044;-75
2023/05/22 02:18:13;;;;;;;17.42;10.55;;;;;;;15.06;78.59;95873.13;5069657;28;20048;-74
2023/05/22 02:20:41;;;;;;;14.45;10.02;;;;;;;15.09;78.89;95873.22;5069879;28;20049;-74
2023/05/22 02:23:08;;;;;;;19.38;11.02;;;;;;;15.08;79.45;95873.56;5069507;28;20051;-75
2023/05/22 02:25:35;;;;;;;13.00;10.05;;;;;;;15.11;79.55;95876.38;5069685;28;20047;-75
2023/05/22 02:28:01;;;;;;;13.35;9.85;;;;;;;15.11;79.25;95873.66;5050214;28;20037;-74
2023/05/22 02:30:28;;;;;;;13.93;10.07;;;;;;;15.08;78.76;95881.78;5049877;28;20041;-74
2023/05/22 02:32:56;;;;;;;14.43;10.52;;;;;;;15.04;79.35;95878.19;5050239;28;20051;-75
2023/05/22 02:35:22;;;;;;;14.27;10.73;;;;;;;15.03;79.95;95882.84;5064067;28;20502;-75
2023/05/22 02:37:50;;;;;;;15.82;10.43;;;;;;;15.03;79.85;95877.38;5070370;28;20431;-76
2023/05/22 02:40:17;;;;;;;13.52;10.25;;;;;;;15.03;79.93;95879.31;5069721;28;20051;-74
2023/05/22 02:42:43;;;;;;;13.55;10.05;;;;;;;15.01;80.19;95884.38;5070106;28;20049;-75
2023/05/22 02:45:10;;;;;;;16.20;10.68;;;;;;;14.98;79.96;95885.09;5069307;28;20044;-75
2023/05/22 02:47:36;;;;;;;16.58;10.10;;;;;;;14.94;79.99;95884.22;5069373;28;20135;-75
2023/05/22 02:50:03;;;;;;;13.63;10.15;;;;;;;14.91;80.71;95882.19;5054409;28;20051;-75
2023/05/22 02:52:30;;;;;;;15.32;11.07;;;;;;;14.87;80.65;95880.16;5070477;28;20063;-75
2023/05/22 02:54:58;;;;;;;20.60;11.38;;;;;;;14.84;79.81;95880.88;5069826;28;20067;-74
2023/05/22 02:57:24;;;;;;;14.85;10.35;;;;;;;14.77;79.69;95875.25;5070081;28;20549;-75
2023/05/22 02:59:51;;;;;;;13.10;9.82;;;;;;;14.72;79.47;95883.75;5069663;28;20054;-74
2023/05/22 03:02:18;;;;;;;14.57;10.15;;;;;;;14.68;79.74;95887.53;5069553;28;20458;-74
2023/05/22 03:04:45;;;;;;;15.93;10.68;;;;;;;14.65;80.15;95883.56;5069749;28;20074;-75
2023/05/22 03:07:12;;;;;;;13.80;10.60;;;;;;;14.62;81.22;95884.28;5069357;28;20048;-74
2023/05/22 03:09:38;;;;;;;16.02;10.90;;;;;;;14.53;81.18;95886.41;5069850;28;20106;-75
2023/05/22 03:12:07;;;;;;;15.00;11.05;;;;;;;14.51;81.82;95883.22;5068974;28;20049;-74
2023/05/22 03:14:33;;;;;;;14.20;11.45;;;;;;;14.48;81.77;95883.94;5051309;28;20067;-74
2023/05/22 03:17:00;;;;;;;14.55;10.80;;;;;;;14.45;81.86;95879.91;5069142;28;20040;-74
2023/05/22 03:19:26;;;;;;;12.65;10.30;;;;;;;14.43;81.76;95884.16;5069062;28;21398;-74
2023/05/22 03:21:53;;;;;;;12.77;10.23;;;;;;;14.39;81.88;95886.03;5069641;28;20567;-74
2023/05/22 03:24:19;;;;;;;15.00;10.45;;;;;;;14.35;81.89;95891.41;5068730;28;20051;-74
2023/05/22 03:26:46;;;;;;;14.85;10.77;;;;;;;14.30;82.35;95895.22;5069435;28;20064;-74
2023/05/22 03:29:14;;;;;;;18.15;11.32;;;;;;;14.27;82.46;95890.44;5069198;28;20455;-74
2023/05/22 03:31:40;;;;;;;14.40;10.98;;;;;;;14.27;82.64;95890.44;5068605;28;20040;-74
2023/05/22 03:34:07;;;;;;;15.88;11.63;;;;;;;14.25;82.84;95898.22;5069165;28;20047;-74
2023/05/22 03:36:34;;;;;;;13.82;10.82;;;;;;;14.22;83.02;95893.44;5069699;28;20710;-74
2023/05/22 03:39:00;;;;;;;15.68;11.55;;;;;;;14.18;83.53;95895.28;5069326;28;20143;-74
2023/05/22 03:41:27;;;;;;;14.45;10.55;;;;;;;14.16;83.28;95892.13;5068597;28;20138;-74
2023/05/22 03:43:53;;;;;;;12.57;10.07;;;;;;;14.07;82.82;95902.44;5069474;28;20051;-73
2023/05/22 03:46:21;;;;;;;14.43;10.48;;;;;;;13.99;82.40;95897.91;5068199;28;20519;-74
2023/05/22 03:48:47;;;;;;;13.70;9.98;;;;;;;13.93;82.21;95897.38;5069054;28;20167;-74
2023/05/22 03:51:15;;;;;;;13.07;10.60;;;;;;;13.89;82.35;95901.19;5069267;28;20045;-75
2023/05/22 03:53:41;;;;;;;15.10;10.52;;;;;;;13.82;83.06;95893.56;5072103;28;20105;-74
2023/05/22 03:56:08;;;;;;;14.35;10.98;;;;;;;13.83;83.56;95893.22;5072898;28;20049;-75
2023/05/22 03:58:34;;;;;;;14.90;11.48;;;;;;;13.84;84.01;95902.22;5073145;28;20407;-75
2023/05/22 04:01:01;;;;;;;14.85;11.35;;;;;;;13.86;84.93;95897.19;5072927;28;20044;-75
2023/05/22 04:03:29;;;;;;;17.45;12.40;;;;;;;13.87;84.95;95900.72;5071872;28;20037;-73
2023/05/22 04:05:57;;;;;;;20.50;12.70;;;;;;;13.89;85.35;95903.91;5072153;28;20488;-75
2023/05/22 04:08:24;;;;;;;16.15;12.15;;;;;;;13.88;85.63;95894.88;5072266;28;20056;-74
2023/05/22 04:10:53;;;;;;;16.58;11.50;;;;;;;13.89;85.18;95896.50;5072815;28;20044;-74
2023/05/22 04:13:19;;;;;;;17.52;12.57;;;;;;;13.92;85.40;95906.72;5072335;28;20072;-74
2023/05/22 04:15:46;;;;;;;17.23;12.13;;;;;;;13.92;85.50;95906.72;5071868;28;20052;-74
2023/05/22 04:18:12;;;;;;;16.48;12.32;;;;;;;13.94;85.11;95909.94;5071935;28;20051;-74
2023/05/22 04:20:41;;;;;;;17.88;12.32;;;;;;;13.96;85.46;95912.31;5072179;28;20045;-75
2023/05/22 04:23:08;;;;;;;16.17;11.50;;;;;;;14.00;85.48;95913.19;5072006;28;20139;-75
2023/05/22 04:25:35;;;;;;;15.63;11.70;;;;;;;14.02;85.45;95910.91;5072347;28;20634;-74
2023/05/22 04:28:02;;;;;;;18.85;12.95;;;;;;;14.05;85.75;95915.69;5071813;28;20041;-77
2023/05/22 04:30:29;;;;;;;22.27;12.77;;;;;;;14.11;86.73;95914.28;5072084;28;20050;-74
2023/05/22 04:32:56;;;;;;;19.15;12.73;;;;;;;14.14;86.97;95924.50;5072647;28;20041;-75
2023/05/22 04:35:22;;;;;;;17.90;13.38;;;;;;;14.16;87.25;95922.22;5071215;28;20115;-74
2023/05/22 04:37:50;;;;;;;16.33;12.32;;;;;;;14.21;87.68;95918.44;5072032;28;20059;-74
2023/05/22 04:40:17;;;;;;;16.48;12.95;;;;;;;14.25;87.81;95925.59;5071450;28;20047;-74
2023/05/22 04:42:44;;;;;;;17.75;12.98;;;;;;;14.30;88.20;95917.13;5072046;28;20553;-74
2023/05/22 04:45:12;;;;;;;17.38;11.95;;;;;;;14.38;88.09;95922.78;5070934;28;20071;-74
2023/05/22 04:47:40;;;;;;;21.58;13.10;;;;;;;14.40;87.79;95917.72;5071717;28;20136;-74
2023/05/22 04:50:07;;;;;;;16.00;12.00;;;;;;;14.46;87.10;95919.06;5071510;28;20056;-76
2023/05/22 04:52:34;;;;;;;18.38;13.07;;;;;;;14.49;86.71;95924.66;5071805;28;20048;-76
2023/05/22 04:55:02;;;;;;;18.08;13.15;;;;;;;14.55;86.35;95923.25;5071945;28;20549;-76
2023/05/22 04:57:29;;;;;;;18.38;12.98;;;;;;;14.59;86.64;95917.88;5071792;28;20068;-76
2023/05/22 04:59:55;;;;;;;16.25;12.73;;;;;;;14.61;86.20;95926.50;5071780;28;20044;-76
2023/05/22 05:02:22;;;;;;;16.70;12.80;;;;;;;14.65;84.95;95927.41;5071376;28;20060;-76
2023/05/22 05:04:48;;;;;;;16.60;11.98;;;;;;;14.67;84.33;95927.88;5071349;28;20061;-75
2023/05/22 05:07:17;;;;;;;16.65;12.60;;;;;;;14.72;84.41;95935.81;5071460;28;20044;-76
2023/05/22 05:09:44;;;;;;;16.05;12.05;;;;;;;14.78;83.99;95934.38;5071729;28;20056;-76
2023/05/22 05:12:12;;;;;;;18.23;12.48;;;;;;;14.83;83.82;95933.34;5071362;28;20399;-76
2023/05/22 05:14:38;;;;;;;17.38;14.10;;;;;;;14.84;83.88;95929.44;5071143;28;20051;-76
2023/05/22 05:17:05;;;;;;;17.05;12.63;;;;;;;14.90;84.20;95929.94;5070604;28;20640;-76
2023/05/22 05:19:31;;;;;;;16.45;13.32;;;;;;;14.88;84.52;95927.56;5071664;28;20051;-76
2023/05/22 05:21:59;;;;;;;16.40;12.07;;;;;;;14.96;84.58;95929.31;5071223;28;20434;-76
2023/05/22 05:24:25;;;;;;;19.70;12.63;;;;;;;14.82;81.95;95932.50;5070415;28;20037;-76
2023/05/22 05:26:52;;;;;;;16.35;12.52;;;;;;;14.86;81.48;95932.59;5071623;28;20052;-77
2023/05/22 05:29:21;;;;;;;15.55;11.95;;;;;;;14.77;82.51;95941.03;5070922;28;20044;-78
2023/05/22 05:31:47;;;;;;;16.45;12.70;;;;;;;14.68;82.85;95934.13;5072008;28;20060;-77
2023/05/22 05:34:14;;;;;;;20.88;13.38;;;;;;;14.63;81.55;95931.66;5071414;28;20095;-77
2023/05/22 05:36:41;;;;;;;17.05;12.23;;;;;;;14.76;81.31;95931.19;5071870;28;20094;-79
2023/05/22 05:39:08;;;;;;;17.65;13.07;;;;;;;14.83;81.31;95928.63;5072827;28;20087;-79
2023/05/22 05:41:34;;;;;;;18.27;12.98;;;;;;;14.76;81.19;95927.66;5072689;28;20064;-78
2023/05/22 05:44:01;;;;;;;14.38;11.30;;;;;;;15.03;81.03;95934.16;5074203;28;20047;-78
2023/05/22 05:46:28;;;;;;;17.52;12.95;;;;;;;15.07;79.90;95932.31;5072118;28;20048;-78
2023/05/22 05:48:55;;;;;;;22.70;15.77;;;;;;;15.02;79.50;95927.09;5072308;28;20037;-78
2023/05/22 05:51:21;;;;;;;21.02;12.57;;;;;;;15.07;78.51;95933.09;5071933;28;20063;-76
2023/05/22 05:53:49;;;;;;;17.02;11.93;;;;;;;15.14;76.97;95927.78;5071653;28;20483;-77
2023/05/22 05:56:16;;;;;;;17.77;12.00;;;;;;;15.33;76.68;95929.75;5070209;28;20050;-75
2023/05/22 05:58:42;;;;;;;15.05;10.73;;;;;;;15.44;76.69;95929.19;5071323;28;20048;-75
2023/05/22 06:01:10;;;;;;;22.92;12.73;;;;;;;15.45;76.48;95930.78;5070125;28;20063;-74
2023/05/22 06:03:38;;;;;;;17.95;12.05;;;;;;;15.58;76.55;95929.50;5070533;28;20040;-75
2023/05/22 06:06:06;;;;;;;15.48;11.43;;;;;;;15.53;75.68;95938.03;5070115;28;20052;-75
2023/05/22 06:08:33;;;;;;;20.13;12.32;;;;;;;15.53;76.56;95938.03;5071838;28;20408;-77
2023/05/22 06:10:59;;;;;;;19.73;12.23;;;;;;;15.76;77.02;95938.91;5070659;28;20554;-76
2023/05/22 06:13:26;;;;;;;14.93;10.55;;;;;;;15.98;76.42;95940.16;5070653;28;20515;-77
2023/05/22 06:15:52;;;;;;;14.55;10.43;;;;;;;16.11;76.54;95936.06;5069906;28;20040;-75
2023/05/22 06:18:19;;;;;;;15.70;12.25;;;;;;;15.96;76.34;95941.66;5070036;28;20036;-75
2023/05/22 06:20:47;;;;;;;19.40;13.07;;;;;;;16.01;77.05;95941.38;5070670;28;20531;-77
2023/05/22 06:23:14;;;;;;;21.17;13.25;;;;;;;15.95;78.46;95932.63;5070304;28;20048;-76
2023/05/22 06:25:40;;;;;;;19.25;13.05;;;;;;;15.90;78.30;95932.91;5070662;28;20048;-75
2023/05/22 06:28:07;;;;;;;19.23;12.02;;;;;;;16.08;77.17;95936.03;5070401;28;20044;-75
2023/05/22 06:30:33;;;;;;;15.52;11.18;;;;;;;16.18;73.58;95941.72;5071204;28;20070;-76
2023/05/22 06:33:00;;;;;;;13.02;10.07;;;;;;;16.35;72.67;95932.22;5071003;28;20102;-76
2023/05/22 06:35:26;;;;;;;15.00;9.77;;;;;;;16.51;71.71;95934.06;5071026;28;20064;-75
2023/05/22 06:37:54;;;;;;;15.85;9.80;;;;;;;16.51;69.85;95934.06;5070259;28;20044;-75
2023/05/22 06:40:21;;;;;;;16.65;10.20;;;;;;;16.61;68.91;95936.19;5070071;28;20068;-75
2023/05/22 06:42:47;;;;;;;13.90;9.80;;;;;;;16.61;69.28;95936.19;5070500;28;20066;-75
2023/05/22 06:45:16;;;;;;;14.25;10.35;;;;;;;16.58;68.78;95947.91;5069723;28;20393;-76
2023/05/22 06:47:43;;;;;;;14.95;10.00;;;;;;;16.62;70.10;95944.06;5069993;28;20496;-75
2023/05/22 06:50:10;;;;;;;13.65;10.57;;;;;;;16.76;70.67;95945.47;5070151;28;20052;-76
2023/05/22 06:52:37;;;;;;;18.48;11.82;;;;;;;16.70;70.45;95950.47;5069962;28;20047;-76
2023/05/22 06:55:06;;;;;;;20.25;10.85;;;;;;;16.65;70.10;95948.03;5070643;28;20055;-75
2023/05/22 06:57:33;;;;;;;19.38;10.32;;;;;;;16.72;71.58;95942.69;5071048;28;20044;-75
2023/05/22 07:00:00;;;;;;;13.85;10.32;;;;;;;16.90;71.15;95954.75;5070709;28;20173;-75
2023/05/22 07:02:26;;;;;;;16.15;11.30;;;;;;;17.05;72.20;95946.75;5070404;28;20040;-76
2023/05/22 07:04:53;;;;;;;16.23;11.25;;;;;;;17.11;71.32;95948.00;5071332;28;20048;-77
2023/05/22 07:07:19;;;;;;;15.40;10.57;;;;;;;17.30;70.95;95953.41;5071555;28;20048;-76
2023/05/22 07:09:46;;;;;;;16.23;12.15;;;;;;;17.32;70.16;95948.31;5072050;28;20045;-76
2023/05/22 07:12:14;;;;;;;16.65;11.55;;;;;;;17.29;69.41;95954.59;5071429;28;20049;-76
2023/05/22 07:14:41;;;;;;;18.52;11.70;;;;;;;17.23;70.82;95961.56;5071267;28;20047;-77
2023/05/22 07:17:07;;;;;;;18.17;11.48;;;;;;;17.37;70.63;95964.50;5071128;28;20506;-76
2023/05/22 07:19:34;;;;;;;13.90;10.48;;;;;;;17.52;69.52;95967.47;5074445;28;20158;-76
2023/05/22 07:22:00;;;;;;;14.68;11.45;;;;;;;17.66;71.02;95967.69;5077839;28;20043;-75
2023/05/22 07:24:27;;;;;;;17.85;11.88;;;;;;;17.70;70.34;95969.31;5077911;28;20043;-75
2023/05/22 07:26:53;;;;;;;17.02;11.68;;;;;;;17.70;68.62;95963.00;5077878;28;20040;-76
2023/05/22 07:29:21;;;;;;;17.35;11.35;;;;;;;17.77;69.89;95967.84;5077183;28;20047;-75
2023/05/22 07:31:48;;;;;;;16.67;12.55;;;;;;;17.80;72.33;95962.41;5082832;28;20040;-75
2023/05/22 07:34:14;;;;;;;16.35;12.52;;;;;;;17.86;68.71;95960.88;5081943;28;20040;-76
2023/05/22 07:36:41;;;;;;;19.73;12.10;;;;;;;17.97;69.46;95967.31;5079769;28;20064;-76
2023/05/22 07:39:08;;;;;;;18.38;12.63;;;;;;;18.08;67.76;95959.19;5076296;28;20051;-75
2023/05/22 07:41:35;;;;;;;16.02;11.63;;;;;;;18.20;67.98;95958.13;5080316;28;20051;-80
2023/05/22 07:44:01;;;;;;;14.82;11.70;;;;;;;18.21;68.38;95954.19;5081001;28;20047;-77
2023/05/22 07:46:29;;;;;;;15.73;11.98;;;;;;;18.24;67.30;95958.97;5081150;28;20033;-75
2023/05/22 07:48:55;;;;;;;17.20;12.52;;;;;;;18.39;67.63;95962.66;5078641;28;20043;-77
2023/05/22 07:51:22;;;;;;;15.93;12.32;;;;;;;18.42;66.22;95962.69;5077774;28;20048;-76
2023/05/22 07:53:48;;;;;;;15.48;11.70;;;;;;;18.61;67.28;95969.97;5080086;28;20143;-76
2023/05/22 07:56:16;;;;;;;19.30;12.07;;;;;;;18.74;66.31;95965.00;5079637;28;20582;-77
2023/05/22 07:58:42;;;;;;;19.73;12.15;;;;;;;18.69;66.00;95960.66;5080539;28;20040;-77
2023/05/22 08:01:09;;;;;;;17.88;11.30;;;;;;;18.99;66.99;95971.53;5080940;28;20068;-77
2023/05/22 08:03:37;;;;;;;15.07;11.23;;;;;;;19.01;63.94;95971.16;5080796;28;20061;-76
2023/05/22 08:06:04;;;;;;;15.75;11.65;;;;;;;19.38;63.72;95968.28;5079687;28;20049;-76
2023/05/22 08:08:31;;;;;;;19.30;11.77;;;;;;;19.67;63.47;95960.97;5081096;28;20045;-76
2023/05/22 08:10:58;;;;;;;16.83;11.85;;;;;;;20.06;64.12;95969.47;5080388;28;20044;-75
2023/05/22 08:13:24;;;;;;;16.77;11.88;;;;;;;19.97;62.01;95963.50;5075142;28;20040;-75
2023/05/22 08:15:52;;;;;;;19.70;11.98;;;;;;;20.03;63.09;95947.31;5072350;28;20055;-76
2023/05/22 08:18:19;;;;;;;17.00;11.20;;;;;;;20.14;62.76;95955.66;5073072;28;20059;-76
2023/05/22 08:20:47;;;;;;;16.98;12.73;;;;;;;20.04;60.48;95944.16;5073585;28;20049;-76
2023/05/22 08:23:14;;;;;;;16.73;12.10;;;;;;;20.32;63.34;95951.00;5073365;28;20047;-75
2023/05/22 08:25:40;;;;;;;15.43;11.45;;;;;;;20.57;67.12;95945.53;5072674;28;20036;-75
2023/05/22 08:28:07;;;;;;;17.25;12.00;;;;;;;20.82;60.52;95946.34;5072245;28;20047;-78
2023/05/22 08:30:35;;;;;;;15.50;12.10;;;;;;;21.10;63.32;95951.09;5073078;28;20140;-77
2023/05/22 08:33:02;;;;;;;16.38;11.38;;;;;;;21.25;61.58;95951.91;5072534;28;20542;-77
2023/05/22 08:35:28;;;;;;;16.95;11.98;;;;;;;21.46;61.08;95948.34;5072533;28;20044;-76
2023/05/22 08:37:56;;;;;;;15.77;11.98;;;;;;;21.60;59.06;95951.06;5072353;28;20044;-75
2023/05/22 08:40:25;;;;;;;20.52;12.45;;;;;;;21.38;58.65;95954.28;5072269;28;20051;-76
2023/05/22 08:42:53;;;;;;;20.05;14.93;;;;;;;21.36;60.38;95952.69;5072613;28;20128;-76
2023/05/22 08:45:20;;;;;;;17.70;13.20;;;;;;;21.49;64.43;95950.28;5071818;28;20076;-76
2023/05/22 08:47:52;;;;;;;19.65;12.77;;;;;;;21.80;61.03;95942.31;5067605;28;20055;-76
2023/05/22 08:50:19;;;;;;;19.70;12.45;;;;;;;21.84;62.21;95948.63;5071880;28;20045;-75
2023/05/22 08:52:50;;;;;;;18.95;14.32;;;;;;;21.78;58.88;95951.03;5072468;28;20049;-75
2023/05/22 08:55:19;;;;;;;19.02;13.65;;;;;;;21.71;62.22;95944.69;5071519;28;20051;-75
2023/05/22 08:57:46;;;;;;;16.67;12.95;;;;;;;21.81;59.33;95952.19;5072325;28;20048;-76
2023/05/22 09:00:14;;;;;;;16.65;11.98;;;;;;;22.02;57.32;95954.88;5072085;28;20055;-77
2023/05/22 09:02:41;;;;;;;15.73;12.05;;;;;;;22.17;59.05;95943.78;5072629;28;20044;-76
2023/05/22 09:05:09;;;;;;;18.13;12.50;;;;;;;22.10;58.33;95948.16;5071764;28;20040;-78
2023/05/22 09:07:36;;;;;;;17.02;13.27;;;;;;;22.16;62.90;95942.97;5072980;28;20045;-77
2023/05/22 09:10:05;;;;;;;19.85;14.55;;;;;;;22.21;65.13;95945.34;5072653;28;20519;-78
2023/05/22 09:12:34;;;;;;;21.17;13.73;;;;;;;22.29;57.92;95955.22;5073238;28;20044;-76
2023/05/22 09:15:08;;;;;;;17.42;13.88;;;;;;;22.13;58.08;95955.69;5073132;28;20044;-77
2023/05/22 09:17:35;;;;;;;21.08;12.68;;;;;;;22.01;58.20;95946.97;5072454;28;20045;-77
2023/05/22 09:20:03;;;;;;;17.27;13.13;;;;;;;22.22;61.66;95941.38;5072733;28;20044;-79
2023/05/22 09:22:36;;;;;;;21.65;12.15;;;;;;;22.45;60.42;95942.81;5072544;28;20075;-78
2023/05/22 09:25:03;;;;;;;20.08;14.90;;;;;;;22.43;59.37;95948.00;5072780;28;20044;-78
2023/05/22 09:27:30;;;;;;;17.30;13.73;;;;;;;22.35;60.39;95944.47;5073154;28;20052;-77
2023/05/22 09:29:58;;;;;;;19.02;13.30;;;;;;;22.54;59.15;95949.50;5072431;28;20044;-78
2023/05/22 09:32:28;;;;;;;19.58;14.32;;;;;;;22.30;57.17;95940.16;5071502;28;20406;-77
2023/05/22 09:35:02;;;;;;;20.67;14.45;;;;;;;22.45;57.91;95948.38;5072365;28;20408;-75
2023/05/22 09:37:32;;;;;;;17.05;13.95;;;;;;;22.40;57.95;95946.84;5071975;28;20044;-76
2023/05/22 09:39:59;;;;;;;16.52;13.30;;;;;;;22.45;57.44;95949.19;5072499;28;20041;-78
2023/05/22 09:42:25;;;;;;;20.90;15.32;;;;;;;22.40;55.85;95952.38;5072028;28;20055;-76
2023/05/22 09:44:52;;;;;;;16.70;13.25;;;;;;;22.35;55.71;95944.47;5071792;28;20492;-78
2023/05/22 09:47:20;;;;;;;18.45;13.93;;;;;;;22.48;60.87;95948.34;5071389;28;20048;-77
2023/05/22 09:49:47;;;;;;;21.02;13.75;;;;;;;22.32;57.14;95956.38;5070954;28;20052;-78
2023/05/22 09:52:14;;;;;;;23.45;14.57;;;;;;;22.65;57.72;95953.00;5070661;28;20048;-76
2023/05/22 09:54:48;;;;;;;16.77;14.15;;;;;;;22.59;55.28;95956.63;5071314;28;20131;-77
2023/05/22 09:57:18;;;;;;;17.35;13.80;;;;;;;22.55;57.96;95944.75;5071700;28;20074;-78
2023/05/22 09:59:52;;;;;;;18.38;14.65;;;;;;;22.62;55.32;95950.28;5072502;28;20044;-77
2023/05/22 10:02:22;;;;;;;16.67;12.75;;;;;;;22.70;60.08;95942.66;5071268;28;20052;-78
2023/05/22 10:04:49;;;;;;;22.83;14.05;;;;;;;22.87;59.71;95950.88;5073341;28;20036;-78
2023/05/22 10:07:18;;;;;;;17.02;13.70;;;;;;;22.96;62.77;95947.66;5071908;28;20067;-75
2023/05/22 10:09:51;;;;;;;19.73;15.32;;;;;;;22.98;54.69;95952.81;5072025;28;20051;-75
2023/05/22 10:12:21;;;;;;;15.43;12.23;;;;;;;23.04;57.10;95946.41;5071429;28;20105;-76
2023/05/22 10:14:48;;;;;;;18.05;13.57;;;;;;;23.02;57.30;95943.28;5071881;28;20037;-77
2023/05/22 10:17:15;;;;;;;15.15;12.43;;;;;;;23.34;59.18;95947.75;5071182;28;20055;-75
2023/05/22 10:19:43;;;;;;;19.83;13.15;;;;;;;23.26;58.41;95946.22;5071266;28;20435;-76
2023/05/22 10:22:19;;;;;;;21.40;15.50;;;;;;;23.39;61.52;95944.53;5071269;28;20041;-76
2023/05/22 10:24:46;;;;;;;21.33;14.85;;;;;;;23.14;55.07;95940.00;5071679;28;20045;-76
2023/05/22 10:27:12;;;;;;;16.55;13.93;;;;;;;23.37;54.25;95936.59;5070860;28;20567;-76
2023/05/22 10:29:47;;;;;;;15.38;12.52;;;;;;;23.42;58.66;95938.13;5071487;28;20056;-77
2023/05/22 10:32:21;;;;;;;21.05;14.45;;;;;;;23.14;56.40;95928.09;5071534;28;20045;-76
2023/05/22 10:34:53;;;;;;;20.85;13.65;;;;;;;23.00;55.04;95929.00;5071254;28;20050;-77
2023/05/22 10:37:36;;;;;;;14.95;12.07;;;;;;;23.23;55.88;95930.38;5070606;28;20059;-76
2023/05/22 10:40:07;;;;;;;19.17;13.50;;;;;;;23.11;55.15;95935.25;5070478;28;20063;-77
2023/05/22 10:42:34;;;;;;;17.42;13.70;;;;;;;23.05;58.78;95928.56;5070863;28;20067;-77
2023/05/22 10:45:01;;;;;;;23.48;15.15;;;;;;;23.22;56.61;95932.38;5071003;28;20514;-77
2023/05/22 10:47:27;;;;;;;20.92;13.45;;;;;;;23.53;62.27;95933.25;5069854;28;20040;-76
2023/05/22 10:50:06;;;;;;;20.92;11.90;;;;;;;23.59;58.00;95928.81;5070742;28;20040;-76
2023/05/22 10:52:33;;;;;;;17.10;13.60;;;;;;;23.71;59.52;95932.34;5070420;28;20037;-77
2023/05/22 10:55:00;;;;;;;20.90;14.88;;;;;;;23.55;54.38;95930.09;5070970;28;20047;-77
2023/05/22 10:57:27;;;;;;;18.58;13.40;;;;;;;23.79;58.51;95936.59;5070503;28;20032;-77
2023/05/22 11:00:08;;;;;;;25.58;16.13;;;;;;;23.69;57.09;95929.94;5070833;28;20044;-76
2023/05/22 11:02:39;;;;;;;20.38;14.98;;;;;;;23.68;57.83;95926.38;5070305;28;20044;-77
2023/05/22 11:05:41;;;;;;;18.25;14.20;;;;;;;23.60;56.06;95927.66;5069787;28;20067;-76
2023/05/22 11:08:38;;;;;;;19.17;14.80;;;;;;;23.56;56.62;95929.66;5069927;28;20048;-76
2023/05/22 11:11:12;;;;;;;20.33;15.93;;;;;;;23.53;56.77;95922.16;5071073;28;20079;-75
2023/05/22 11:13:40;;;;;;;22.63;14.77;;;;;;;23.49;56.25;95924.19;5070770;28;20049;-76
2023/05/22 11:16:08;;;;;;;17.63;14.57;;;;;;;23.75;58.47;95925.50;5069552;28;20048;-75
2023/05/22 11:18:35;;;;;;;15.20;12.57;;;;;;;23.88;55.83;95926.56;5069834;28;20045;-76
2023/05/22 11:21:04;;;;;;;18.48;13.90;;;;;;;23.88;58.13;95917.44;5069885;28;20040;-76
2023/05/22 11:23:34;;;;;;;18.80;13.65;;;;;;;24.00;55.12;95919.66;5070596;28;20555;-76